Flight Briefing for CPX261

Departure Arrival
Kansas City International Airport (KMCI)
Click to view FAA NOTAMS
General Edward Lawrence Logan International Airport (KBOS)
Click to view FAA NOTAMS
Departure Time Arrival Time
N/A N/A
Aircraft Distance
B767-300BDSF 1090nm
Departure METAR Arrival METAR
KMCI 252353Z 36007KT 10SM BKN080 11/04 A3029 RMK AO2 SLP257 T01060039 10128 20100 53003 KBOS 252354Z 12007KT 10SM FEW130 BKN210 04/M07 A3005 RMK AO2 SLP176 T00391072 10111 20039 51012
Suggested Route
LAKES2 SPI ROD KLYNE Q29 JHW Q82 PONCT JFUND2


View recent IFR Routes data
Notes
METROAIR CARGO SUPPORT

Charts and Procedures

Charts for KMCI
No chart available
Charts for KBOS
No chart available

Windy.com Weather Map